KANB/ANB METAR and TAF weather

Enter ICAO airport designator
Station Type Date Time Source
KANB METAR 2021/05/12 01:00 UTC NOAA

KANB 120100Z AUTO 00000KT 10SM FEW026 SCT039 BKN100 21/16 A3007 RMK AO2 T02060161


Station Type Date Time Source
KANB Decoded METAR 2021/05/12 01:00 UTC NOAA

ANNISTON METRO AIRPORT, AL, United States (KANB) 33-35N 085-51W 183M
May 11, 2021 - 09:00 PM EDT / 2021.05.12 0100 UTC
Wind: Calm:0
Visibility: 10 mile(s):0
Sky conditions: mostly cloudy
Temperature: 69.1 F (20.6 C)
Dew Point: 61.0 F (16.1 C)
Relative Humidity: 75%
Pressure (altimeter): 30.07 in. Hg (1018 hPa)
ob: KANB 120100Z AUTO 00000KT 10SM FEW026 SCT039 BKN100 21/16 A3007 RMK AO2 T02060161
cycle: 1

Station Type Date Time Source
KANB TAF 2021/05/11 18:39 UTC NOAA

TAF KANB 111736Z 1118/1218 36007KT P6SM VCSH BKN025
FM120300 VRB03KT 6SM SHRA BR OVC022
FM120600 03005KT 4SM SHRA BR OVC009
FM120900 04007KT 4SM SHRA BR OVC005
FM121500 03007KT P6SM OVC009 PROB30 1215/1216 4SM -SHRA BR OVC006

Example: see airport list